Time;durP1;ratioP1;P1;durP2;ratioP2;P2;SDS_P1;SDS_P2;PMS_P1;PMS_P2;Temp;Humidity;BMP_temperature;BMP_pressure;BME280_temperature;BME280_humidity;BME280_pressure;Samples;Min_cycle;Max_cycle;Signal;HPM_P1;HPM_P2
2022/12/17 13:06:53;;;;;;;1999.90;999.90;;;4.20;99.90;;;;;;5048000;28;20089;-86
2022/12/17 13:09:26;;;;;;;1999.90;999.90;;;3.30;1.00;;;;;;5048409;28;20045;-87
2022/12/17 13:12:01;;;;;;;1999.90;999.90;;;4.10;1.00;;;;;;5054722;28;20049;-87
2022/12/17 13:14:33;;;;;;;1999.90;999.90;;;2.10;1.00;;;;;;5053280;28;20477;-87
2022/12/17 13:17:07;;;;;;;1999.90;999.90;;;4.40;1.00;;;;;;5053710;28;20049;-87
2022/12/17 13:19:38;;;;;;;1999.90;999.90;;;4.40;1.00;;;;;;5053611;28;20057;-88
2022/12/17 13:22:13;;;;;;;1999.90;999.90;;;4.30;1.00;;;;;;5049614;28;20045;-87
2022/12/17 13:24:44;;;;;;;1999.90;999.90;;;3.80;1.00;;;;;;5053629;28;20076;-86
2022/12/17 13:27:37;;;;;;;1999.90;999.90;;;3.80;1.00;;;;;;5044394;28;20064;-87
2022/12/17 13:30:20;;;;;;;1999.90;999.90;;;4.30;99.90;;;;;;5043944;28;20071;-87
2022/12/17 13:32:55;;;;;;;1999.90;999.90;;;5.20;99.90;;;;;;5053302;28;20072;-88
2022/12/17 13:35:43;;;;;;;1999.90;999.90;;;5.40;99.90;;;;;;5054893;28;20037;-87
2022/12/17 13:38:33;;;;;;;1999.90;999.90;;;6.30;1.00;;;;;;5049430;28;20045;-84
2022/12/17 13:41:30;;;;;;;1999.90;999.90;;;4.90;1.00;;;;;;5050832;28;20057;-84
2022/12/17 13:44:00;;;;;;;1999.90;999.90;;;4.10;1.00;;;;;;5047595;28;20521;-83
2022/12/17 13:46:41;;;;;;;1999.90;999.90;;;3.90;1.00;;;;;;5054129;28;20049;-83
2022/12/17 13:49:24;;;;;;;1999.90;999.90;;;4.30;99.90;;;;;;5051958;28;20056;-83
2022/12/17 13:52:04;;;;;;;1999.90;999.90;;;4.30;1.00;;;;;;5052281;28;20049;-83
2022/12/17 13:54:29;;;;;;;1999.90;999.90;;;5.60;1.00;;;;;;5046517;28;20041;-84
2022/12/17 13:57:11;;;;;;;1999.90;999.90;;;4.20;99.90;;;;;;5052252;28;20048;-88
2022/12/17 13:59:37;;;;;;;1999.90;999.90;;;4.10;99.90;;;;;;5051734;28;20053;-84
2022/12/17 14:02:03;;;;;;;1999.90;999.90;;;;;;;;;;5052725;28;20101;-85
2022/12/17 14:04:30;;;;;;;1999.90;999.90;;;4.70;1.00;;;;;;5051422;28;20045;-82
2022/12/17 14:06:59;;;;;;;1999.90;999.90;;;4.10;1.00;;;;;;5050257;28;20056;-85
2022/12/17 14:09:43;;;;;;;1999.90;999.90;;;5.60;99.90;;;;;;5051633;28;20095;-87
2022/12/17 14:12:24;;;;;;;1999.90;999.90;;;4.00;1.00;;;;;;5052156;28;20048;-87
2022/12/17 14:15:07;;;;;;;1999.90;999.90;;;3.80;1.00;;;;;;5033918;28;20198;-86
2022/12/17 14:17:45;;;;;;;1999.90;999.90;;;3.00;1.00;;;;;;5044263;28;20037;-87
2022/12/17 14:20:18;;;;;;;1999.90;999.90;;;3.70;1.00;;;;;;5051855;28;20120;-87
2022/12/17 14:22:53;;;;;;;1999.90;999.90;;;5.40;1.00;;;;;;5028653;28;20486;-88
2022/12/17 14:25:23;;;;;;;1999.90;999.90;;;3.60;1.00;;;;;;5049766;28;20037;-87
2022/12/17 14:27:56;;;;;;;1999.90;999.90;;;3.50;1.00;;;;;;5051958;28;20155;-85
2022/12/17 14:30:32;;;;;;;1999.90;999.90;;;3.40;5.00;;;;;;5051749;28;20041;-87
2022/12/17 14:32:58;;;;;;;1999.90;999.90;;;3.50;1.00;;;;;;5048731;28;20068;-87
2022/12/17 14:35:30;;;;;;;1999.90;999.90;;;4.50;1.00;;;;;;5052942;28;20045;-86
2022/12/17 14:37:56;;;;;;;1999.90;999.90;;;4.60;18.40;;;;;;5052838;28;20091;-86
2022/12/17 14:40:24;;;;;;;1999.90;999.90;;;2.10;36.20;;;;;;5017250;28;20044;-86
2022/12/17 14:42:56;;;;;;;1999.90;999.90;;;3.20;37.30;;;;;;5051743;28;20244;-87
2022/12/17 14:45:24;;;;;;;1999.90;999.90;;;5.40;2.00;;;;;;5036140;28;20049;-86
2022/12/17 14:47:58;;;;;;;1999.90;999.90;;;4.00;87.90;;;;;;5030890;28;20375;-86
2022/12/17 14:50:29;;;;;;;1999.90;999.90;;;3.30;1.00;;;;;;5047283;28;20037;-85
2022/12/17 14:52:57;;;;;;;1999.90;999.90;;;6.10;75.80;;;;;;5032269;28;20132;-85
2022/12/17 14:55:50;;;;;;;1999.90;999.90;;;5.10;94.10;;;;;;5063011;28;20478;-86
2022/12/17 14:58:20;;;;;;;1999.90;999.90;;;3.20;19.00;;;;;;5052151;28;20064;-86
2022/12/17 15:01:05;;;;;;;1999.90;999.90;;;1.30;99.90;;;;;;5031070;28;20056;-84
2022/12/17 15:03:36;;;;;;;1999.90;999.90;;;3.20;99.90;;;;;;5023899;28;20100;-85
2022/12/17 15:06:05;;;;;;;1999.90;999.90;;;2.70;99.90;;;;;;5048508;28;20044;-85
2022/12/17 15:08:40;;;;;;;1999.90;999.90;;;3.20;99.90;;;;;;5046630;28;20121;-85
2022/12/17 15:11:06;;;;;;;1999.90;999.90;;;3.10;99.90;;;;;;5049958;28;20049;-84
2022/12/17 15:13:32;;;;;;;1999.90;999.90;;;5.30;99.90;;;;;;5053054;28;20037;-85
2022/12/17 15:15:58;;;;;;;1999.90;999.90;;;2.70;99.90;;;;;;5046928;28;20158;-85
2022/12/17 15:18:24;;;;;;;1999.90;999.90;;;2.20;99.90;;;;;;5045641;28;20045;-84
2022/12/17 15:20:50;;;;;;;1999.90;999.90;;;5.50;99.90;;;;;;5050235;28;20120;-85
2022/12/17 15:23:18;;;;;;;1999.90;999.90;;;2.80;99.90;;;;;;5051144;28;20115;-85
2022/12/17 15:25:46;;;;;;;1999.90;999.90;;;3.00;99.90;;;;;;5049251;28;20052;-85
2022/12/17 15:28:11;;;;;;;1999.90;999.90;;;3.40;99.90;;;;;;5048757;28;20128;-84
2022/12/17 15:30:38;;;;;;;1999.90;999.90;;;3.00;99.90;;;;;;5044811;28;20172;-85
2022/12/17 15:33:06;;;;;;;1999.90;999.90;;;5.20;99.90;;;;;;5049868;28;20076;-85
2022/12/17 15:35:32;;;;;;;1999.90;999.90;;;1.80;99.90;;;;;;5045796;28;20068;-85
2022/12/17 15:37:57;;;;;;;1999.90;999.90;;;3.20;99.90;;;;;;5041926;28;20045;-85
2022/12/17 15:40:23;;;;;;;1999.90;999.90;;;3.20;99.90;;;;;;5032382;28;20052;-85
2022/12/17 15:45:33;;;;;;;1999.90;999.90;;;2.60;99.90;;;;;;5048352;28;20665;-85
2022/12/17 15:47:59;;;;;;;1999.90;999.90;;;1.50;99.90;;;;;;5045969;28;20048;-86
2022/12/17 15:50:24;;;;;;;1999.90;999.90;;;3.40;99.90;;;;;;5048395;28;20056;-85
2022/12/17 15:52:51;;;;;;;1999.90;999.90;;;;;;;;;;5046506;28;20053;-85
2022/12/17 15:55:16;;;;;;;1999.90;999.90;;;3.00;99.90;;;;;;5045122;28;20048;-85
2022/12/17 15:57:42;;;;;;;1999.90;999.90;;;2.50;99.90;;;;;;5046632;28;20044;-85
2022/12/17 16:00:09;;;;;;;1999.90;999.90;;;3.20;99.90;;;;;;5046024;28;20131;-85
2022/12/17 16:02:35;;;;;;;1999.90;999.90;;;1.00;99.90;;;;;;5049337;28;20044;-84
2022/12/17 16:05:01;;;;;;;1999.90;999.90;;;;;;;;;;5045589;28;20080;-84
2022/12/17 16:07:27;;;;;;;1999.90;999.90;;;3.50;99.90;;;;;;5051039;28;20393;-83
2022/12/17 16:09:53;;;;;;;1999.90;999.90;;;2.70;99.90;;;;;;5022165;28;20052;-84
2022/12/17 16:12:19;;;;;;;1999.90;999.90;;;;;;;;;;5013800;28;20128;-84
2022/12/17 16:14:45;;;;;;;1999.90;999.90;;;;;;;;;;5047611;28;20055;-84
2022/12/17 16:17:10;;;;;;;1999.90;999.90;;;5.40;99.90;;;;;;5031375;28;20103;-84
2022/12/17 16:19:36;;;;;;;1999.90;999.90;;;2.40;99.90;;;;;;5031529;28;20053;-84
2022/12/17 16:22:02;;;;;;;1999.90;999.90;;;2.20;99.90;;;;;;5044577;28;20489;-84
2022/12/17 16:24:28;;;;;;;1999.90;999.90;;;0.90;99.90;;;;;;5027113;28;20045;-84
2022/12/17 16:26:53;;;;;;;1999.90;999.90;;;2.40;99.90;;;;;;5031281;28;20052;-84
2022/12/17 16:29:19;;;;;;;1999.90;999.90;;;0.80;99.90;;;;;;5050849;28;20041;-83
2022/12/17 16:31:45;;;;;;;1999.90;999.90;;;2.70;99.90;;;;;;5031132;28;20446;-85
2022/12/17 16:34:11;;;;;;;1629.03;711.47;;;2.90;99.90;;;;;;5049852;28;21434;-84
2022/12/17 16:36:37;;;;;;;1999.90;999.90;;;3.60;99.90;;;;;;5023529;28;20295;-83
2022/12/17 16:39:04;;;;;;;1999.90;999.90;;;3.50;99.90;;;;;;5044446;28;20045;-84
2022/12/17 16:41:31;;;;;;;1999.90;999.90;;;1.90;99.90;;;;;;5047108;28;20086;-84
2022/12/17 16:43:57;;;;;;;1999.90;999.90;;;4.30;99.90;;;;;;5047108;28;20041;-84
2022/12/17 16:46:34;;;;;;;1999.90;999.90;;;0.60;99.90;;;;;;5030622;28;20041;-85
2022/12/17 16:49:06;;;;;;;1999.90;999.90;;;2.80;99.90;;;;;;5048953;28;20041;-84
2022/12/17 16:51:32;;;;;;;1999.90;999.90;;;;;;;;;;5043303;28;20041;-84
2022/12/17 16:53:58;;;;;;;1999.90;999.90;;;;;;;;;;5047203;28;20555;-84
2022/12/17 16:56:26;;;;;;;1999.90;999.90;;;3.60;99.90;;;;;;5047411;28;20041;-84
2022/12/17 16:58:53;;;;;;;1999.90;999.90;;;2.00;99.90;;;;;;5042326;28;20541;-84
2022/12/17 17:01:24;;;;;;;1999.90;999.90;;;2.80;99.90;;;;;;5045804;28;20052;-85
2022/12/17 17:03:50;;;;;;;1999.90;999.90;;;2.40;99.90;;;;;;5048604;28;20060;-84
2022/12/17 17:06:17;;;;;;;1999.90;999.90;;;6.10;99.90;;;;;;5049660;28;20068;-85
2022/12/17 17:08:43;;;;;;;1999.90;999.90;;;2.30;99.90;;;;;;5045669;28;20045;-85
2022/12/17 17:11:14;;;;;;;1999.90;999.90;;;2.50;99.90;;;;;;5047068;28;20043;-85
2022/12/17 17:13:40;;;;;;;1999.90;999.90;;;2.60;99.90;;;;;;5044652;28;20091;-86
2022/12/17 17:16:07;;;;;;;1999.90;999.90;;;2.30;99.90;;;;;;5050832;28;20464;-85
2022/12/17 17:18:34;;;;;;;1999.90;999.90;;;1.40;99.90;;;;;;5036052;28;20123;-85
2022/12/17 17:21:18;;;;;;;1999.90;999.90;;;1.90;99.90;;;;;;5051238;28;20045;-86
2022/12/17 17:23:45;;;;;;;1999.90;999.90;;;1.20;99.90;;;;;;5050059;28;20041;-86
2022/12/17 17:26:12;;;;;;;1999.90;999.90;;;4.00;99.90;;;;;;5048639;28;20709;-85
2022/12/17 17:28:38;;;;;;;1999.90;999.90;;;3.00;99.90;;;;;;5046525;28;20055;-86
2022/12/17 17:31:06;;;;;;;1999.90;999.90;;;1.10;99.90;;;;;;5047255;28;20124;-85
2022/12/17 17:33:35;;;;;;;1999.90;999.90;;;2.20;99.90;;;;;;5049462;28;20498;-85
2022/12/17 17:36:07;;;;;;;1999.90;999.90;;;3.80;99.90;;;;;;5052397;28;20059;-84
2022/12/17 17:38:35;;;;;;;1999.90;999.90;;;2.40;99.90;;;;;;5037851;28;20502;-84
2022/12/17 17:41:01;;;;;;;1891.57;601.05;;;2.30;99.90;;;;;;5051366;28;20045;-84
2022/12/17 17:43:27;;;;;;;1999.90;999.90;;;6.10;99.90;;;;;;5052864;28;20513;-83
2022/12/17 17:45:56;;;;;;;1999.90;999.90;;;2.10;99.90;;;;;;5053409;28;20053;-84
2022/12/17 17:48:22;;;;;;;1999.90;999.90;;;4.30;99.90;;;;;;5050556;28;20099;-83
2022/12/17 17:51:21;;;;;;;1999.90;999.90;;;3.40;99.90;;;;;;5031795;28;20432;-84
2022/12/17 17:53:49;;;;;;;1999.90;999.90;;;2.10;99.90;;;;;;5040372;28;20053;-84
2022/12/17 17:56:17;;;;;;;1999.90;353.42;;;2.10;99.90;;;;;;5029936;28;20103;-84
2022/12/17 17:58:49;;;;;;;1999.90;999.90;;;2.10;99.90;;;;;;5047474;28;20517;-84
2022/12/17 18:01:21;;;;;;;1999.90;999.90;;;3.00;99.90;;;;;;5047956;28;20049;-84
2022/12/17 18:03:46;;;;;;;1999.90;999.90;;;3.00;99.90;;;;;;5053992;28;20393;-84
2022/12/17 18:06:13;;;;;;;1999.90;999.90;;;0.80;99.90;;;;;;5032698;28;20132;-83
2022/12/17 18:08:40;;;;;;;1999.90;999.90;;;2.10;99.90;;;;;;5048497;28;20049;-83
2022/12/17 18:11:11;;;;;;;1999.90;999.90;;;2.10;99.90;;;;;;5029674;28;20143;-83
2022/12/17 18:13:55;;;;;;;1999.90;999.90;;;2.10;99.90;;;;;;5052064;28;20048;-83
2022/12/17 18:16:27;;;;;;;1999.90;999.90;;;4.30;99.90;;;;;;5027827;28;20037;-84
2022/12/17 18:18:58;;;;;;;1999.90;999.90;;;2.10;1.00;;;;;;5050623;28;20567;-83
2022/12/17 18:21:25;;;;;;;1999.90;999.90;;;1.60;1.00;;;;;;5032900;28;20107;-84
2022/12/17 18:23:55;;;;;;;1999.90;999.90;;;1.40;1.00;;;;;;5052606;28;20485;-84
2022/12/17 18:26:23;;;;;;;1999.90;999.90;;;2.10;1.00;;;;;;5050203;28;20049;-84
2022/12/17 18:28:49;;;;;;;1999.90;999.90;;;0.80;1.00;;;;;;5035454;28;20045;-84
2022/12/17 18:31:18;;;;;;;1999.90;999.90;;;2.00;99.90;;;;;;5051865;28;20049;-84
2022/12/17 18:33:52;;;;;;;1999.90;999.90;;;2.60;1.00;;;;;;5051984;28;20131;-84
2022/12/17 18:36:33;;;;;;;1999.90;999.90;;;2.10;1.00;;;;;;5043380;28;20048;-84
2022/12/17 18:39:03;;;;;;;1999.90;999.90;;;4.70;1.00;;;;;;5050056;28;20061;-85
2022/12/17 18:44:15;;;;;;;1999.90;999.90;;;1.50;1.00;;;;;;5050972;28;20456;-84
2022/12/17 18:46:41;;;;;;;1999.90;999.90;;;;;;;;;;5045141;28;21810;-83
2022/12/17 18:49:10;;;;;;;1999.90;999.90;;;0.10;1.00;;;;;;5034063;28;20493;-83
2022/12/17 18:51:38;;;;;;;1999.90;999.90;;;0.30;1.00;;;;;;5049112;28;20106;-84
2022/12/17 18:54:05;;;;;;;1999.90;999.90;;;4.10;1.00;;;;;;5049536;28;20053;-83
2022/12/17 18:56:32;;;;;;;1999.90;999.90;;;3.60;1.00;;;;;;5046959;28;20055;-83
2022/12/17 18:58:58;;;;;;;1999.90;999.90;;;1.60;1.00;;;;;;5010129;28;20049;-82
2022/12/17 19:01:30;;;;;;;1999.90;999.90;;;1.80;1.00;;;;;;5043934;28;20037;-79
2022/12/17 19:03:56;;;;;;;1999.90;999.90;;;;;;;;;;5043430;28;20052;-82
2022/12/17 19:06:23;;;;;;;1999.90;999.90;;;1.50;1.00;;;;;;5048046;28;20449;-78
2022/12/17 19:08:50;;;;;;;1999.90;999.90;;;2.60;1.00;;;;;;5048794;28;20080;-79
2022/12/17 19:11:20;;;;;;;1999.90;999.90;;;3.20;1.00;;;;;;5021462;28;20088;-79
2022/12/17 19:13:47;;;;;;;1999.90;999.90;;;2.10;1.00;;;;;;5051104;28;20133;-78
2022/12/17 19:16:19;;;;;;;1999.90;999.90;;;1.90;1.00;;;;;;5044652;28;20369;-80
2022/12/17 19:18:53;;;;;;;1999.90;999.90;;;0.70;1.00;;;;;;5029659;28;20401;-79
2022/12/17 19:21:20;;;;;;;1999.90;999.90;;;3.80;1.00;;;;;;5045291;28;20060;-80
2022/12/17 19:23:46;;;;;;;1999.90;999.90;;;4.60;1.00;;;;;;5048786;28;20052;-80
2022/12/17 19:26:20;;;;;;;1999.90;999.90;;;1.90;1.00;;;;;;5046131;28;20481;-80
2022/12/17 19:28:48;;;;;;;1999.90;999.90;;;2.00;1.00;;;;;;5045422;28;20041;-80
2022/12/17 19:31:15;;;;;;;1999.90;999.90;;;2.10;1.00;;;;;;5047414;28;20041;-80
2022/12/17 19:33:41;;;;;;;1999.90;999.90;;;3.70;1.00;;;;;;5049382;28;20048;-80
2022/12/17 19:36:10;;;;;;;1999.90;999.90;;;1.90;1.00;;;;;;5044647;28;20458;-80
2022/12/17 19:38:36;;;;;;;1999.90;999.90;;;4.10;1.00;;;;;;5045207;28;20125;-79
2022/12/17 19:41:16;;;;;;;1999.90;999.90;;;2.30;99.90;;;;;;5048973;28;20048;-83
2022/12/17 19:43:43;;;;;;;1999.90;999.90;;;0.40;1.00;;;;;;5050588;28;20045;-82
2022/12/17 19:46:14;;;;;;;1999.90;999.90;;;0.90;1.00;;;;;;5042970;28;20192;-82
2022/12/17 19:48:41;;;;;;;1999.90;999.90;;;4.00;1.00;;;;;;5049807;28;20105;-82
2022/12/17 19:51:09;;;;;;;1999.90;999.90;;;1.30;1.00;;;;;;5047491;28;20457;-82
2022/12/17 19:53:36;;;;;;;;;;;1.80;1.00;;;;;;5051372;28;20432;-82
2022/12/17 19:56:17;;;;;;;1999.90;999.90;;;1.10;99.90;;;;;;5034420;28;20294;-82
2022/12/17 19:58:45;;;;;;;1999.90;999.90;;;-0.60;1.00;;;;;;5050176;28;20525;-82
2022/12/17 20:01:21;;;;;;;1999.90;999.90;;;2.20;1.00;;;;;;5051059;28;20049;-82
2022/12/17 20:03:47;;;;;;;1999.90;999.90;;;2.40;1.00;;;;;;5048796;28;20063;-84
2022/12/17 20:06:16;;;;;;;1999.90;999.90;;;2.10;1.00;;;;;;5048707;28;20060;-79
2022/12/17 20:08:42;;;;;;;1999.90;999.90;;;;;;;;;;5041112;28;20049;-79
2022/12/17 20:13:58;;;;;;;1999.90;999.90;;;3.00;1.00;;;;;;5046037;28;20064;-77
2022/12/17 20:16:25;;;;;;;1999.90;999.90;;;1.90;1.00;;;;;;5046652;28;20310;-77
2022/12/17 20:18:51;;;;;;;1999.90;999.90;;;0.80;99.90;;;;;;5048420;28;20052;-78
2022/12/17 20:21:18;;;;;;;1999.90;999.90;;;1.90;99.90;;;;;;5029672;28;20102;-80
2022/12/17 20:23:49;;;;;;;1999.90;999.90;;;1.80;99.90;;;;;;5049605;28;20081;-78
2022/12/17 20:26:16;;;;;;;1999.90;999.90;;;;;;;;;;5049337;28;20129;-79
2022/12/17 20:28:42;;;;;;;1999.90;999.90;;;;;;;;;;5044829;28;20080;-80
2022/12/17 20:31:08;;;;;;;1999.90;999.90;;;;;;;;;;5050906;28;20049;-81
2022/12/17 20:33:34;;;;;;;1999.90;999.90;;;0.00;99.90;;;;;;5049913;28;20048;-80
2022/12/17 20:36:05;;;;;;;1999.90;999.90;;;0.30;99.90;;;;;;5050866;28;20045;-79
2022/12/17 20:38:30;;;;;;;1999.90;999.90;;;1.40;99.90;;;;;;5021918;28;20049;-79
2022/12/17 20:40:56;;;;;;;1999.90;999.90;;;1.60;99.90;;;;;;5040792;28;20103;-78
2022/12/17 20:43:22;;;;;;;1999.90;999.90;;;2.10;99.90;;;;;;5047672;28;20045;-78
2022/12/17 20:45:49;;;;;;;1999.90;999.90;;;4.70;99.90;;;;;;5049832;28;20060;-79
2022/12/17 20:48:15;;;;;;;1999.90;999.90;;;-0.40;99.90;;;;;;5045455;28;20087;-79
2022/12/17 20:50:42;;;;;;;1999.90;999.90;;;0.90;99.90;;;;;;5055852;28;20106;-79
2022/12/17 20:53:07;;;;;;;1505.97;424.73;;;0.40;99.90;;;;;;5049531;28;20061;-79
2022/12/17 20:55:33;;;;;;;1999.90;999.90;;;3.40;99.90;;;;;;5051057;28;20524;-79
2022/12/17 20:57:59;;;;;;;1999.90;999.90;;;;;;;;;;5047695;28;20049;-82
2022/12/17 21:00:25;;;;;;;1999.90;999.90;;;5.20;99.90;;;;;;5051016;28;20041;-80
2022/12/17 21:02:51;;;;;;;1999.90;999.90;;;1.00;99.90;;;;;;5051203;28;20044;-78
2022/12/17 21:05:17;;;;;;;1999.90;999.90;;;;;;;;;;5050353;28;20037;-78
2022/12/17 21:07:43;;;;;;;1999.90;999.90;;;1.50;99.90;;;;;;5047146;28;20116;-79
2022/12/17 21:10:10;;;;;;;1999.90;999.90;;;1.60;99.90;;;;;;5052319;28;20041;-78
2022/12/17 21:15:35;;;;;;;1645.60;711.00;;;1.30;99.90;;;;;;5030848;28;20628;-78
2022/12/17 21:18:00;;;;;;;1999.90;999.90;;;4.20;99.90;;;;;;5049786;28;20128;-77
2022/12/17 21:20:26;;;;;;;1999.90;999.90;;;;;;;;;;5051758;28;20119;-77
2022/12/17 21:22:52;;;;;;;1999.90;999.90;;;1.30;99.90;;;;;;5053795;28;20120;-78
2022/12/17 21:25:18;;;;;;;1999.90;999.90;;;2.00;99.90;;;;;;5049122;28;20600;-78
2022/12/17 21:27:43;;;;;;;1999.90;999.90;;;2.30;99.90;;;;;;5045907;28;20053;-78
2022/12/17 21:30:10;;;;;;;1999.90;999.90;;;;;;;;;;5041241;28;20059;-77
2022/12/17 21:32:36;;;;;;;1999.90;999.90;;;;;;;;;;5041985;28;20402;-78
2022/12/17 21:35:01;;;;;;;1999.90;999.90;;;1.80;99.90;;;;;;5049118;28;20044;-78
2022/12/17 21:37:28;;;;;;;1999.90;999.90;;;0.90;99.90;;;;;;5052715;28;20049;-78
2022/12/17 21:39:53;;;;;;;1999.90;999.90;;;0.90;99.90;;;;;;5050595;28;20116;-78
2022/12/17 21:45:04;;;;;;;1999.90;999.90;;;1.30;99.90;;;;;;5049430;28;20517;-78
2022/12/17 21:47:29;;;;;;;1999.90;999.90;;;3.30;99.90;;;;;;5034712;28;20374;-78
2022/12/17 21:49:55;;;;;;;1999.90;999.90;;;3.10;99.90;;;;;;5048796;28;20682;-78
2022/12/17 21:52:21;;;;;;;1999.90;999.90;;;3.00;99.90;;;;;;5034667;28;20432;-79
2022/12/17 21:54:47;;;;;;;1999.90;999.90;;;;;;;;;;5048462;28;20110;-79
2022/12/17 21:57:13;;;;;;;1999.90;999.90;;;1.50;99.90;;;;;;5050668;28;20073;-80
2022/12/17 21:59:38;;;;;;;1999.90;999.90;;;1.00;99.90;;;;;;5051889;28;20533;-81
2022/12/17 22:02:04;;;;;;;1999.90;999.90;;;3.40;99.90;;;;;;5048694;28;20044;-80
2022/12/17 22:04:30;;;;;;;1999.90;999.90;;;1.40;1.00;;;;;;5047448;28;20048;-80
2022/12/17 22:06:56;;;;;;;1604.93;689.17;;;;;;;;;;5049743;28;20485;-80
2022/12/17 22:09:22;;;;;;;1999.90;999.90;;;1.20;99.90;;;;;;5050482;28;20079;-82
2022/12/17 22:11:48;;;;;;;1999.90;999.90;;;2.10;99.90;;;;;;5042643;28;20049;-82
2022/12/17 22:14:14;;;;;;;1999.90;999.90;;;;;;;;;;5052011;28;20045;-81
2022/12/17 22:16:45;;;;;;;1999.90;999.90;;;1.30;99.90;;;;;;5050113;28;20045;-82
2022/12/17 22:19:19;;;;;;;1999.90;999.90;;;1.30;1.00;;;;;;5051171;28;20044;-82
2022/12/17 22:21:46;;;;;;;1999.90;999.90;;;1.20;1.00;;;;;;5050154;28;20045;-82
2022/12/17 22:24:14;;;;;;;1999.90;999.90;;;4.40;99.90;;;;;;5032823;28;20060;-80
2022/12/17 22:26:40;;;;;;;1999.90;999.90;;;0.90;99.90;;;;;;5049915;28;20111;-79
2022/12/17 22:29:05;;;;;;;1999.90;999.90;;;3.70;1.00;;;;;;5031950;28;20052;-78
2022/12/17 22:34:15;;;;;;;1999.90;999.90;;;-0.40;1.00;;;;;;5051936;28;20045;-80
2022/12/17 22:36:42;;;;;;;1999.90;999.90;;;;;;;;;;5048360;28;20049;-80
2022/12/17 22:39:10;;;;;;;1999.90;999.90;;;-0.20;1.00;;;;;;5049702;28;20131;-81
2022/12/17 22:44:22;;;;;;;1999.90;999.90;;;-1.00;1.00;;;;;;5049568;28;20056;-81
2022/12/17 22:46:47;;;;;;;1999.90;999.90;;;3.10;1.00;;;;;;5049371;28;20056;-81
2022/12/17 22:49:14;;;;;;;1999.90;999.90;;;1.20;1.00;;;;;;5049649;28;20041;-81
2022/12/17 22:51:41;;;;;;;1999.90;999.90;;;1.50;1.00;;;;;;5050972;28;20405;-81
2022/12/17 22:54:09;;;;;;;1999.90;999.90;;;-0.20;1.00;;;;;;5042968;28;20055;-81
2022/12/17 22:56:36;;;;;;;1999.90;999.90;;;-0.40;99.90;;;;;;5047652;28;20095;-80
2022/12/17 22:59:02;;;;;;;1999.90;999.90;;;1.30;99.90;;;;;;5050181;28;20063;-80
2022/12/17 23:01:28;;;;;;;1999.90;999.90;;;0.90;1.00;;;;;;5051175;28;20120;-81
2022/12/17 23:03:55;;;;;;;1999.90;999.90;;;1.30;99.90;;;;;;5046561;28;20097;-82
2022/12/17 23:06:21;;;;;;;1999.90;999.90;;;-0.30;1.00;;;;;;5051078;28;20056;-81
2022/12/17 23:08:47;;;;;;;1999.90;999.90;;;1.30;1.00;;;;;;5048565;28;20049;-81
2022/12/17 23:11:15;;;;;;;1999.90;999.90;;;0.30;1.00;;;;;;5047614;28;22114;-81
2022/12/17 23:13:41;;;;;;;1999.90;999.90;;;3.10;1.00;;;;;;5049866;28;20060;-81
2022/12/17 23:16:09;;;;;;;1999.90;999.90;;;1.40;1.00;;;;;;5046912;28;20041;-78
2022/12/17 23:18:35;;;;;;;1999.90;999.90;;;0.60;1.00;;;;;;5048829;28;20080;-79
2022/12/17 23:21:15;;;;;;;1999.90;999.90;;;-0.60;1.00;;;;;;5047349;28;20397;-78
2022/12/17 23:23:41;;;;;;;1999.90;999.90;;;1.10;1.00;;;;;;5049919;28;20497;-78
2022/12/17 23:26:15;;;;;;;1999.90;999.90;;;0.90;1.00;;;;;;5049549;28;20498;-80
2022/12/17 23:28:41;;;;;;;1999.90;999.90;;;1.70;1.00;;;;;;5049780;28;20454;-81
2022/12/17 23:31:08;;;;;;;1999.90;999.90;;;0.80;1.00;;;;;;5048011;28;20577;-81
2022/12/17 23:33:35;;;;;;;1999.90;999.90;;;1.40;1.00;;;;;;5042213;28;21563;-81
2022/12/17 23:36:06;;;;;;;1999.90;999.90;;;0.80;1.00;;;;;;5031469;28;20057;-81
2022/12/17 23:38:32;;;;;;;1999.90;999.90;;;1.30;1.00;;;;;;5040913;28;20041;-81
2022/12/17 23:41:06;;;;;;;1999.90;999.90;;;1.20;1.00;;;;;;5036690;28;20409;-82
2022/12/17 23:43:32;;;;;;;1999.90;999.90;;;;;;;;;;5044054;28;20098;-81
2022/12/17 23:45:58;;;;;;;1999.90;999.90;;;;;;;;;;5042613;28;20048;-81
2022/12/17 23:48:27;;;;;;;1999.90;999.90;;;-0.10;1.00;;;;;;5041516;28;20490;-81
2022/12/17 23:50:53;;;;;;;1999.90;999.90;;;;;;;;;;5042718;28;20041;-81
2022/12/17 23:53:19;;;;;;;1999.90;999.90;;;-0.50;1.00;;;;;;5042568;28;20053;-81
2022/12/17 23:55:44;;;;;;;1999.90;999.90;;;4.00;1.00;;;;;;5038437;28;20204;-81
2022/12/17 23:58:11;;;;;;;1999.90;999.90;;;;;;;;;;5016314;28;20664;-81
